G4YTK Staffordshire UK current weather conditions

sailwx.info

Wind from 323 at 5 knots gusting 10

Air temperature 3.3° C
Dewpoint 1.1° C

Last reported at 2020-Jan-18 20:00 UTC.
Time now 2020-Jan-18 20:30 UTC

Location: N 52°40' W 001°59'.
View on Google Maps.

See reports from other nearby stations

  
Tides and Currents Weather Stations Pressure Air Temp Water Temp Dewpoint Dewpoint Depression Visibility Wind Speed Wind Dir Waves Ship Positions
date/time (UTC)wind fromknots sea level pressurealtimeterstation pressurevisibilityair tempwater tempwave heightnotes
2020-Jan-18 20:00 323 5 gusting 10 3.3
2020-Jan-18 19:45 313 5 gusting 11 3.3
2020-Jan-18 19:30 309 6 gusting 11 3.3
2020-Jan-18 19:15 293 5 gusting 11 3.3
2020-Jan-18 19:00 350 6 gusting 11 3.9
2020-Jan-18 18:45 311 7 gusting 12 3.9
2020-Jan-18 18:30 303 7 gusting 11 4.4
2020-Jan-18 18:15 318 6 gusting 12 4.4
2020-Jan-18 18:00 322 6 gusting 16 4.4
2020-Jan-18 17:45 316 6 gusting 10 3.9
2020-Jan-18 17:30 303 6 gusting 11 3.9
2020-Jan-18 17:15 338 4 gusting 8 3.9
2020-Jan-18 17:00 319 4 gusting 7 3.9
2020-Jan-18 16:45 279 2 gusting 5 3.9
2020-Jan-18 16:30 306 5 gusting 9 4.4
2020-Jan-18 16:15 314 4 gusting 7 4.4
2020-Jan-18 16:00 294 4 gusting 10 5.0
2020-Jan-18 15:45 284 4 gusting 8 5.0
2020-Jan-18 15:30 285 6 gusting 11 5.6
2020-Jan-18 15:15 273 6 gusting 12 5.6
2020-Jan-18 15:00 284 6 gusting 13 5.6
2020-Jan-18 14:45 295 6 gusting 14 6.1
2020-Jan-18 14:30 280 7 gusting 12 6.1
2020-Jan-18 14:15 282 7 gusting 14 5.6
2020-Jan-18 14:00 308 7 gusting 13 5.6
2020-Jan-18 13:45 304 6 gusting 12 5.6
2020-Jan-18 13:30 293 6 gusting 13 5.6
2020-Jan-18 13:15 290 6 gusting 11 5.6
2020-Jan-18 13:00 309 6 gusting 10 5.6
2020-Jan-18 12:45 291 6 gusting 9 5.6
2020-Jan-18 12:30 286 7 gusting 13 5.0
2020-Jan-18 12:15 323 6 gusting 13 5.0
2020-Jan-18 12:00 294 6 gusting 13 5.0
2020-Jan-18 11:45 308 6 gusting 11 5.0
2020-Jan-18 11:30 306 6 gusting 10 5.0
2020-Jan-18 11:15 298 7 gusting 11 4.4
2020-Jan-18 11:00 310 6 gusting 10 4.4
2020-Jan-18 10:44 301 5 gusting 11 3.9
2020-Jan-18 10:30 128 3 gusting 6 3.3
2020-Jan-18 10:15 302 3 gusting 5 2.2
2020-Jan-18 10:00 311 3 gusting 6 2.2
2020-Jan-18 09:44 306 5 gusting 8 1.7
2020-Jan-18 09:30 290 5 gusting 8 1.7
2020-Jan-18 09:14 295 5 gusting 9 1.1
2020-Jan-18 09:00 265 3 gusting 6 0.6
2020-Jan-18 08:44 281 2 gusting 5 1.1
2020-Jan-18 08:30 255 2 gusting 5 1.1
2020-Jan-18 08:14 284 2 gusting 6 1.1
2020-Jan-18 08:00 259 1 gusting 6 0.6
2020-Jan-18 07:45 278 0 gusting 2 1.1
2020-Jan-18 07:30 273 1 gusting 3 1.1
2020-Jan-18 07:15 311 2 gusting 6 1.1
2020-Jan-18 07:00 257 2 gusting 6 1.1
2020-Jan-18 06:45 259 2 gusting 6 1.1
2020-Jan-18 06:30 275 1 gusting 4 1.1
2020-Jan-18 06:15 277 2 gusting 6 1.1
2020-Jan-18 06:00 273 2 gusting 6 0.6
2020-Jan-18 05:45 265 2 gusting 4 0.6
2020-Jan-18 05:30 248 1 gusting 4 1.1
2020-Jan-18 05:15 286 0 gusting 3 1.1
2020-Jan-18 05:00 276 1 gusting 4 1.7
2020-Jan-18 04:44 275 2 gusting 6 1.7
2020-Jan-18 04:30 273 3 gusting 6 1.7
2020-Jan-18 04:14 273 4 gusting 8 1.7
2020-Jan-18 04:00 267 4 gusting 8 1.1
2020-Jan-18 03:45 315 3 gusting 6 0.6
2020-Jan-18 03:30 286 2 gusting 6 0.6
2020-Jan-18 03:15 265 2 gusting 6 0.6
2020-Jan-18 03:00 257 1 gusting 2 0.6
2020-Jan-18 02:45 260 0 gusting 2 1.1
2020-Jan-18 02:30 258 1 gusting 3 1.1
2020-Jan-18 02:15 275 1 gusting 4 1.1
2020-Jan-18 02:00 260 3 gusting 6 1.7
2020-Jan-18 01:45 287 3 gusting 6 1.7
2020-Jan-18 01:30 267 4 gusting 6 1.7
2020-Jan-18 01:15 277 5 gusting 8 2.2
2020-Jan-18 01:00 283 5 gusting 10 2.2
2020-Jan-18 00:45 289 5 gusting 9 2.2
2020-Jan-18 00:30 284 5 gusting 9 2.2
2020-Jan-18 00:14 312 4 gusting 8 2.2
2020-Jan-18 00:00 277 4 gusting 8 1.7
2020-Jan-17 23:45 285 5 gusting 8 2.2
2020-Jan-17 23:30 258 4 gusting 7 2.2
2020-Jan-17 23:15 268 3 gusting 7 1.7
2020-Jan-17 23:00 248 2 gusting 5 1.7
2020-Jan-17 22:45 272 2 gusting 4 1.7
2020-Jan-17 22:30 297 2 gusting 6 2.2
2020-Jan-17 22:15 267 3 gusting 7 2.2
2020-Jan-17 22:00 279 4 gusting 8 2.2
2020-Jan-17 21:45 279 2 gusting 6 2.2
2020-Jan-17 21:30 273 2 gusting 5 2.2
2020-Jan-17 21:15 244 2 gusting 6 2.2
2020-Jan-17 21:00 264 3 gusting 6 2.2
2020-Jan-17 20:45 250 3 gusting 7 2.2
2020-Jan-17 20:30 250 3 gusting 8 2.2
2020-Jan-17 20:15 243 3 gusting 8 2.2
2020-Jan-17 20:00 267 3 gusting 8 2.8
2020-Jan-17 19:45 273 3 gusting 7 2.8
2020-Jan-17 19:30 252 4 gusting 9 2.8
2020-Jan-17 19:15 251 4 gusting 9 2.8
2020-Jan-17 19:00 269 4 gusting 10 2.8
2020-Jan-17 18:45 252 2 gusting 6 2.8
2020-Jan-17 18:30 221 1 gusting 4 2.8
2020-Jan-17 18:15 248 1 gusting 6 3.3
2020-Jan-17 18:00 218 3 gusting 7 3.3
2020-Jan-17 17:45 273 1 gusting 6 3.3
2020-Jan-17 17:30 246 1 gusting 6 3.3
2020-Jan-17 17:15 261 3 gusting 6 3.3
2020-Jan-17 17:00 246 2 gusting 6 3.3
2020-Jan-17 16:45 242 3 gusting 6 3.9
2020-Jan-17 16:30 250 2 gusting 7 3.9
2020-Jan-17 16:15 269 4 gusting 10 4.4
2020-Jan-17 16:00 261 4 gusting 7 4.4
2020-Jan-17 15:45 263 5 gusting 9 5.0
2020-Jan-17 15:30 250 5 gusting 10 5.0
2020-Jan-17 15:15 254 6 gusting 13 4.4
2020-Jan-17 15:00 263 5 gusting 10 4.4
2020-Jan-17 14:45 253 6 gusting 13 4.4
2020-Jan-17 14:30 227 6 gusting 13 4.4
2020-Jan-17 14:15 266 6 gusting 13 3.9
2020-Jan-17 14:00 290 6 gusting 13 3.9
2020-Jan-17 13:45 273 6 gusting 11 3.9
2020-Jan-17 13:30 242 6 gusting 11 3.3
2020-Jan-17 13:15 263 7 gusting 12 3.3
2020-Jan-17 13:00 275 6 gusting 10 3.3
2020-Jan-17 12:45 254 6 gusting 11 3.3
2020-Jan-17 12:30 292 7 gusting 19 3.3
2020-Jan-17 12:15 294 10 gusting 18 2.8
2020-Jan-17 12:00 296 11 gusting 19 2.8
2020-Jan-17 11:45 316 10 gusting 17 2.8
2020-Jan-17 11:30 288 10 gusting 18 2.8
2020-Jan-17 11:14 301 10 gusting 18 2.8
2020-Jan-17 11:00 293 13 gusting 24 2.8
2020-Jan-17 10:44 307 13 gusting 20 3.3
2020-Jan-17 10:29 335 12 gusting 23 4.4
2020-Jan-17 10:14 231 8 gusting 15 6.1
2020-Jan-17 09:59 248 4 gusting 11 6.1
2020-Jan-17 09:44 243 3 gusting 7 6.1
2020-Jan-17 09:30 194 4 gusting 9 6.1
2020-Jan-17 09:14 221 3 gusting 7 6.1
2020-Jan-17 08:59 217 1 gusting 4 6.1
2020-Jan-17 08:44 246 1 gusting 2 6.1
2020-Jan-17 08:29 250 1 gusting 3 6.1
2020-Jan-17 08:14 245 2 gusting 6 6.1
2020-Jan-17 08:00 235 2 gusting 6 6.7
2020-Jan-17 07:44 251 2 gusting 6 6.7
2020-Jan-17 07:29 220 2 gusting 6 6.7
2020-Jan-17 07:14 257 1 gusting 4 6.7
2020-Jan-17 06:59 252 2 gusting 6 6.7
2020-Jan-17 06:44 214 4 gusting 6 6.7
2020-Jan-17 06:29 190 4 gusting 7 7.2
2020-Jan-17 06:14 192 3 gusting 6 7.2
2020-Jan-17 05:59 169 3 gusting 10 7.2
2020-Jan-17 05:44 204 2 gusting 6 7.2
2020-Jan-17 05:29 136 1 gusting 6 7.2
2020-Jan-17 05:14 186 1 gusting 4 7.2
2020-Jan-17 04:59 189 1 gusting 5 7.2
2020-Jan-17 04:44 172 2 gusting 6 7.8
2020-Jan-17 04:29 238 2 gusting 6 7.8
2020-Jan-17 04:15 224 4 gusting 7 7.8
2020-Jan-17 04:00 209 3 gusting 7 7.8
2020-Jan-17 03:44 200 3 gusting 8 7.8
2020-Jan-17 03:29 206 3 gusting 6 7.8
2020-Jan-17 03:14 190 3 gusting 8 7.8
2020-Jan-17 03:00 189 2 gusting 6 7.2
2020-Jan-17 02:44 226 2 gusting 6 7.2
2020-Jan-17 02:29 227 3 gusting 7 7.8
2020-Jan-17 02:14 224 3 gusting 6 7.8
2020-Jan-17 02:00 181 3 gusting 6 7.8
2020-Jan-17 01:44 182 3 gusting 7 7.8
2020-Jan-17 01:30 188 2 gusting 7 7.8
2020-Jan-17 01:14 220 2 gusting 7 7.8
2020-Jan-17 01:00 179 4 gusting 7 7.8
2020-Jan-17 00:45 180 4 gusting 9 7.8
2020-Jan-17 00:30 217 2 gusting 7 7.2
2020-Jan-17 00:14 209 3 gusting 7 7.8
2020-Jan-17 00:00 172 2 gusting 6 7.8
2020-Jan-16 23:45 217 1 gusting 5 7.8
2020-Jan-16 23:30 240 0 gusting 2 7.8
2020-Jan-16 23:15 218 2 gusting 4 7.8
2020-Jan-16 23:00 211 3 gusting 7 8.3
2020-Jan-16 22:45 161 4 gusting 9 8.3
2020-Jan-16 22:30 265 4 gusting 10 8.3
2020-Jan-16 22:15 243 4 gusting 10 8.9
2020-Jan-16 22:00 225 4 gusting 8 8.9
2020-Jan-16 21:45 269 4 gusting 10 9.4
2020-Jan-16 21:30 223 4 gusting 10 9.4
2020-Jan-16 21:15 261 4 gusting 7 9.4
2020-Jan-16 21:00 208 4 gusting 10 10.0
2020-Jan-16 20:45 210 5 gusting 15 10.0
2020-Jan-16 20:30 230 5 gusting 12 10.6
2020-Jan-16 20:15 244 6 gusting 16 10.6
2020-Jan-16 20:00 155 6 gusting 13 10.6